createdAt,value
2018-12-16T00:04:02.414Z,9.63
2018-12-16T00:09:07.877Z,9.55
2018-12-16T00:14:13.089Z,9.53
2018-12-16T00:19:16.268Z,9.55
2018-12-16T00:24:19.579Z,9.57
2018-12-16T00:29:22.757Z,9.59
2018-12-16T00:34:26.087Z,9.56
2018-12-16T00:39:29.352Z,9.48
2018-12-16T00:44:32.672Z,9.51
2018-12-16T00:49:35.990Z,9.55
2018-12-16T00:54:39.499Z,9.58
2018-12-16T00:59:42.807Z,9.54
2018-12-16T01:04:45.971Z,9.55
2018-12-16T01:09:49.156Z,9.56
2018-12-16T01:14:52.354Z,9.65
2018-12-16T01:19:55.627Z,9.61
2018-12-16T01:24:59.270Z,9.59
2018-12-16T01:30:02.414Z,9.54
2018-12-16T01:35:06.082Z,9.56
2018-12-16T01:40:09.299Z,9.45
2018-12-16T01:45:12.703Z,9.38
2018-12-16T01:50:15.955Z,9.45
2018-12-16T01:55:19.326Z,9.34
2018-12-16T02:00:23.149Z,9.34
2018-12-16T02:05:26.441Z,9.39
2018-12-16T02:10:29.724Z,9.35
2018-12-16T02:15:32.995Z,9.41
2018-12-16T02:20:36.258Z,9.48
2018-12-16T02:25:39.557Z,9.43
2018-12-16T02:30:42.777Z,9.40
2018-12-16T02:35:46.117Z,9.44
2018-12-16T02:40:49.419Z,9.46
2018-12-16T02:45:52.682Z,9.50
2018-12-16T02:50:55.956Z,9.46
2018-12-16T02:55:59.289Z,9.41
2018-12-16T03:01:02.647Z,9.31
2018-12-16T03:06:05.957Z,9.28
2018-12-16T03:11:09.172Z,9.19
2018-12-16T03:16:12.440Z,9.21
2018-12-16T03:21:15.687Z,9.15
2018-12-16T03:26:19.583Z,9.05
2018-12-16T03:31:22.758Z,9.02
2018-12-16T03:36:27.012Z,9.04
2018-12-16T03:41:30.288Z,9.06
2018-12-16T03:46:33.615Z,9.12
2018-12-16T03:51:36.856Z,9.20
2018-12-16T03:56:40.038Z,9.24
2018-12-16T04:01:45.385Z,9.23
2018-12-16T04:06:48.531Z,9.23
2018-12-16T04:11:51.996Z,9.23
2018-12-16T04:16:55.288Z,9.16
2018-12-16T04:21:58.593Z,9.11
2018-12-16T04:27:01.884Z,9.02
2018-12-16T04:32:05.189Z,9.06
2018-12-16T04:37:08.438Z,9.07
2018-12-16T04:42:11.639Z,9.05
2018-12-16T04:47:14.941Z,9.03
2018-12-16T04:52:18.130Z,9.00
2018-12-16T04:57:24.997Z,9.09
2018-12-16T05:02:29.483Z,9.07
2018-12-16T05:07:32.947Z,9.11
2018-12-16T05:12:36.174Z,9.13
2018-12-16T05:17:39.413Z,8.95
2018-12-16T05:22:42.649Z,9.07
2018-12-16T05:27:45.944Z,9.07
2018-12-16T05:32:49.150Z,9.03
2018-12-16T05:37:52.389Z,9.01
2018-12-16T05:42:55.673Z,8.94
2018-12-16T05:47:59.154Z,8.95
2018-12-16T05:53:02.437Z,9.01
2018-12-16T05:58:05.895Z,8.97
2018-12-16T06:03:09.130Z,9.04
2018-12-16T06:08:12.410Z,8.96
2018-12-16T06:13:16.052Z,8.94
2018-12-16T06:18:19.317Z,9.11
2018-12-16T06:23:22.597Z,9.24
2018-12-16T06:28:25.979Z,9.46
2018-12-16T06:33:29.228Z,9.72
2018-12-16T06:38:32.531Z,9.97
2018-12-16T06:43:35.695Z,10.06
2018-12-16T06:48:38.837Z,10.08
2018-12-16T06:53:42.120Z,10.04
2018-12-16T06:58:45.402Z,10.10
2018-12-16T07:03:48.885Z,9.98
2018-12-16T07:08:52.181Z,9.81
2018-12-16T07:13:55.597Z,9.59
2018-12-16T07:18:58.997Z,9.72
2018-12-16T07:24:09.019Z,9.78
2018-12-16T07:29:08.646Z,9.84
2018-12-16T07:34:12.048Z,9.90
2018-12-16T07:39:15.376Z,9.99
2018-12-16T07:44:19.044Z,9.96
2018-12-16T07:49:22.393Z,10.01
2018-12-16T07:54:25.583Z,10.09
2018-12-16T07:59:28.925Z,10.11
2018-12-16T08:04:33.228Z,10.03
2018-12-16T08:09:36.507Z,10.01
2018-12-16T08:14:39.791Z,9.95
2018-12-16T08:19:43.079Z,9.89
2018-12-16T08:24:46.649Z,9.72
2018-12-16T08:29:49.997Z,9.64
2018-12-16T08:34:53.206Z,9.67
2018-12-16T08:39:56.519Z,9.82
2018-12-16T08:44:59.911Z,9.97
2018-12-16T08:50:03.590Z,10.08
2018-12-16T08:55:07.128Z,10.24
2018-12-16T09:00:10.753Z,10.38
2018-12-16T09:05:14.123Z,10.45
2018-12-16T09:10:17.622Z,10.68
2018-12-16T09:15:20.842Z,10.88
2018-12-16T09:20:24.225Z,10.88
2018-12-16T09:25:27.386Z,11.20
2018-12-16T09:30:30.667Z,11.38
2018-12-16T09:35:33.921Z,11.30
2018-12-16T09:40:37.164Z,11.39
2018-12-16T09:45:40.664Z,11.51
2018-12-16T09:50:44.086Z,11.85
2018-12-16T09:55:47.238Z,11.82
2018-12-16T10:00:50.527Z,11.83
2018-12-16T10:05:53.732Z,11.99
2018-12-16T10:10:57.536Z,12.31
2018-12-16T10:16:00.763Z,12.31
2018-12-16T10:21:04.415Z,12.28
2018-12-16T10:26:07.683Z,12.01
2018-12-16T10:31:11.002Z,11.94
2018-12-16T10:36:14.347Z,11.88
2018-12-16T10:41:17.509Z,11.99
2018-12-16T10:46:20.849Z,12.14
2018-12-16T10:51:24.045Z,12.10
2018-12-16T10:56:27.466Z,12.11
2018-12-16T11:01:30.759Z,12.12
2018-12-16T11:06:34.045Z,12.17
2018-12-16T11:11:37.316Z,12.28
2018-12-16T11:16:40.565Z,12.27
2018-12-16T11:21:45.780Z,12.24
2018-12-16T11:26:49.047Z,12.16
2018-12-16T11:31:52.322Z,12.09
2018-12-16T11:36:55.707Z,11.88
2018-12-16T11:41:58.900Z,11.66
2018-12-16T11:47:02.157Z,11.62
2018-12-16T11:52:05.462Z,11.57
2018-12-16T11:57:08.918Z,11.35
2018-12-16T12:02:12.313Z,11.23
2018-12-16T12:07:17.700Z,11.22
2018-12-16T12:12:20.958Z,11.08
2018-12-16T12:17:24.193Z,10.72
2018-12-16T12:22:27.457Z,10.67
2018-12-16T12:27:30.947Z,10.63
2018-12-16T12:32:34.715Z,10.55
2018-12-16T12:37:39.083Z,10.56
2018-12-16T12:42:42.303Z,10.67
2018-12-16T12:47:45.554Z,10.88
2018-12-16T12:52:48.727Z,10.81
2018-12-16T12:57:53.085Z,10.74
2018-12-16T13:02:56.553Z,10.85
2018-12-16T13:07:59.998Z,10.80
2018-12-16T13:13:03.278Z,10.89
2018-12-16T13:18:06.773Z,10.92
2018-12-16T13:23:10.093Z,10.85
2018-12-16T13:28:13.449Z,10.73
2018-12-16T13:33:16.743Z,10.65
2018-12-16T13:38:19.957Z,10.59
2018-12-16T13:43:23.210Z,10.59
2018-12-16T13:48:26.480Z,10.57
2018-12-16T13:53:29.749Z,10.53
2018-12-16T13:58:32.916Z,10.46
2018-12-16T14:03:36.203Z,10.31
2018-12-16T14:08:40.045Z,10.26
2018-12-16T14:13:44.554Z,10.19
2018-12-16T14:18:48.535Z,10.08
2018-12-16T14:23:51.687Z,9.88
2018-12-16T14:28:54.891Z,9.67
2018-12-16T14:33:58.172Z,9.27
2018-12-16T14:39:01.288Z,8.92
2018-12-16T14:44:06.605Z,8.96
2018-12-16T14:49:09.901Z,8.98
2018-12-16T14:54:13.273Z,8.80
2018-12-16T14:59:16.662Z,8.67
2018-12-16T15:04:20.090Z,8.43
2018-12-16T15:09:23.314Z,8.05
2018-12-16T15:14:26.555Z,7.76
2018-12-16T15:19:29.858Z,7.09
2018-12-16T15:24:33.246Z,6.55
2018-12-16T15:29:36.668Z,6.41
2018-12-16T15:34:41.429Z,6.47
2018-12-16T15:39:46.453Z,6.32
2018-12-16T15:44:49.909Z,6.37
2018-12-16T15:49:53.152Z,6.14
2018-12-16T15:54:56.595Z,6.19
2018-12-16T16:00:00.041Z,6.24
2018-12-16T16:05:03.457Z,6.30
2018-12-16T16:10:08.057Z,6.15
2018-12-16T16:15:11.354Z,5.84
2018-12-16T16:20:14.749Z,5.64
2018-12-16T16:25:18.171Z,5.67
2018-12-16T16:30:21.496Z,5.68
2018-12-16T16:35:24.995Z,4.92
2018-12-16T16:40:29.541Z,4.43
2018-12-16T16:45:32.771Z,4.19
2018-12-16T16:50:36.056Z,4.25
2018-12-16T16:55:39.838Z,4.43
2018-12-16T17:00:43.134Z,4.83
2018-12-16T17:05:46.639Z,4.78
2018-12-16T17:10:50.038Z,4.65
2018-12-16T17:15:53.322Z,4.77
2018-12-16T17:20:56.647Z,4.84
2018-12-16T17:26:00.035Z,4.83
2018-12-16T17:31:03.949Z,4.92
2018-12-16T17:36:07.525Z,4.88
2018-12-16T17:41:10.843Z,4.84
2018-12-16T17:46:14.452Z,5.02
2018-12-16T17:51:18.063Z,5.00
2018-12-16T17:56:21.618Z,5.08
2018-12-16T18:01:24.997Z,5.06
2018-12-16T18:06:28.524Z,5.11
2018-12-16T18:11:31.990Z,5.36
2018-12-16T18:16:35.446Z,5.39
2018-12-16T18:21:38.950Z,5.89
2018-12-16T18:26:44.156Z,5.29
2018-12-16T18:31:47.831Z,5.51
2018-12-16T18:36:51.376Z,5.38
2018-12-16T18:41:55.281Z,5.15
2018-12-16T18:46:58.695Z,5.00
2018-12-16T18:52:02.089Z,5.06
2018-12-16T18:57:07.397Z,4.98
2018-12-16T19:02:12.480Z,4.97
2018-12-16T19:07:15.934Z,4.99
2018-12-16T19:12:19.260Z,4.89
2018-12-16T19:17:22.544Z,4.82
2018-12-16T19:22:26.235Z,4.77
2018-12-16T19:27:29.827Z,4.49
2018-12-16T19:32:33.714Z,4.51
2018-12-16T19:37:39.099Z,4.44
2018-12-16T19:42:42.638Z,4.47
2018-12-16T19:47:49.660Z,4.42
2018-12-16T19:52:53.380Z,4.27
2018-12-16T19:57:56.690Z,4.35
2018-12-16T20:03:00.078Z,4.57
2018-12-16T20:08:03.674Z,4.58
2018-12-16T20:13:07.013Z,4.56
2018-12-16T20:18:10.271Z,4.59
2018-12-16T20:23:14.189Z,4.81
2018-12-16T20:28:17.589Z,5.08
2018-12-16T20:33:21.235Z,4.47
2018-12-16T20:38:24.844Z,4.32
2018-12-16T20:43:28.083Z,4.39
2018-12-16T20:48:31.306Z,4.66
2018-12-16T20:53:34.616Z,4.87
2018-12-16T20:58:37.958Z,4.96
2018-12-16T21:03:41.568Z,4.97
2018-12-16T21:08:44.937Z,4.67
2018-12-16T21:13:53.753Z,4.83
2018-12-16T21:18:57.245Z,4.97
2018-12-16T21:24:01.150Z,4.97
2018-12-16T21:29:04.537Z,5.29
2018-12-16T21:34:08.040Z,5.21
2018-12-16T21:39:11.582Z,5.18
2018-12-16T21:44:16.880Z,4.80
2018-12-16T21:49:20.118Z,4.96
2018-12-16T21:54:23.407Z,4.54
2018-12-16T21:59:26.827Z,4.43
2018-12-16T22:04:30.277Z,4.47
2018-12-16T22:09:33.981Z,4.56
2018-12-16T22:14:37.129Z,4.76
2018-12-16T22:19:40.440Z,4.76
2018-12-16T22:24:43.685Z,4.79
2018-12-16T22:29:46.876Z,4.70
2018-12-16T22:34:50.124Z,4.70
2018-12-16T22:39:53.476Z,4.49
2018-12-16T22:44:57.016Z,4.46
2018-12-16T22:50:01.304Z,4.63
2018-12-16T22:55:05.507Z,4.87
2018-12-16T23:00:13.560Z,4.65
2018-12-16T23:05:18.853Z,4.82
2018-12-16T23:10:22.204Z,4.85
2018-12-16T23:15:25.639Z,4.78
2018-12-16T23:20:28.944Z,4.73
2018-12-16T23:25:32.211Z,4.77
2018-12-16T23:30:35.602Z,4.86
2018-12-16T23:35:38.798Z,4.45
2018-12-16T23:40:42.209Z,4.26
2018-12-16T23:45:45.505Z,4.33
2018-12-16T23:50:49.902Z,4.29
2018-12-16T23:55:53.243Z,4.10
